Time,TemperatureF,DewpointF,PressureIn,WindDirection,WindDirectionDegrees,WindSpeedMPH,WindSpeedGustMPH,Humidity,HourlyPrecipIn,Conditions,Clouds,dailyrainin,SoftwareType,DateUTC
2013-05-06 00:00:00,57.6,44.2,29.26,South,188,2.0,2.0,61,0.00,,,0.00,Wunderground v.1.15,2013-05-06 04:00:00,
2013-05-06 00:05:00,57.6,44.2,29.26,SSW,192,2.0,2.0,61,0.00,,,0.00,Wunderground v.1.15,2013-05-06 04:05:00,
2013-05-06 00:10:00,59.0,44.7,29.26,SW,230,4.0,12.0,59,0.00,,,0.00,Wunderground v.1.15,2013-05-06 04:10:00,
2013-05-06 00:15:00,59.7,44.4,29.26,SW,219,7.0,12.0,57,0.00,,,0.00,Wunderground v.1.15,2013-05-06 04:15:00,
2013-05-06 00:20:00,59.8,44.5,29.26,SW,229,8.0,8.0,57,0.00,,,0.00,Wunderground v.1.15,2013-05-06 04:20:00,
2013-05-06 00:25:00,59.7,44.9,29.26,SW,234,8.0,8.0,58,0.00,,,0.00,Wunderground v.1.15,2013-05-06 04:25:00,
2013-05-06 00:29:00,59.7,44.9,29.26,SW,231,7.0,7.0,58,0.00,,,0.00,Wunderground v.1.15,2013-05-06 04:29:00,
2013-05-06 00:34:00,59.6,44.8,29.26,SW,231,7.0,7.0,58,0.00,,,0.00,Wunderground v.1.15,2013-05-06 04:34:00,
2013-05-06 00:39:00,59.3,45.0,29.26,SW,224,6.0,6.0,59,0.00,,,0.00,Wunderground v.1.15,2013-05-06 04:39:00,
2013-05-06 00:44:00,59.1,44.8,29.26,SW,236,5.0,6.0,59,0.00,,,0.00,Wunderground v.1.15,2013-05-06 04:44:00,
2013-05-06 00:49:00,58.8,44.9,29.26,SW,236,3.0,3.0,60,0.00,,,0.00,Wunderground v.1.15,2013-05-06 04:49:00,
2013-05-06 00:54:00,58.4,45.0,29.26,SW,236,1.0,3.0,61,0.00,,,0.00,Wunderground v.1.15,2013-05-06 04:54:00,
2013-05-06 00:59:00,58.4,45.0,29.26,SW,234,0.0,0.0,61,0.00,,,0.00,Wunderground v.1.15,2013-05-06 04:59:00,
2013-05-06 01:05:00,58.5,45.1,29.26,SW,235,1.0,1.0,61,0.00,,,0.00,Wunderground v.1.15,2013-05-06 05:05:00,
2013-05-06 01:10:00,58.6,44.8,29.26,SW,234,1.0,6.0,60,0.00,,,0.00,Wunderground v.1.15,2013-05-06 05:10:00,
2013-05-06 01:15:00,58.7,44.8,29.26,SW,234,2.0,6.0,60,0.00,,,0.00,Wunderground v.1.15,2013-05-06 05:15:00,
2013-05-06 01:20:00,58.9,45.0,29.26,SW,229,2.0,2.0,60,0.00,,,0.00,Wunderground v.1.15,2013-05-06 05:20:00,
2013-05-06 01:25:00,58.9,45.0,29.26,SW,231,2.0,6.0,60,0.00,,,0.00,Wunderground v.1.15,2013-05-06 05:25:00,
2013-05-06 01:30:00,58.7,44.8,29.26,WSW,237,2.0,6.0,60,0.00,,,0.00,Wunderground v.1.15,2013-05-06 05:30:00,
2013-05-06 01:40:00,58.6,44.3,29.26,SW,236,3.0,6.0,59,0.00,,,0.00,Wunderground v.1.15,2013-05-06 05:40:00,
2013-05-06 01:45:00,58.7,44.4,29.26,SW,236,3.0,6.0,59,0.00,,,0.00,Wunderground v.1.15,2013-05-06 05:45:00,
2013-05-06 01:50:00,59.0,44.2,29.26,SW,235,4.0,4.0,58,0.00,,,0.00,Wunderground v.1.15,2013-05-06 05:50:00,
2013-05-06 01:55:00,59.1,44.3,29.26,SW,231,4.0,7.0,58,0.00,,,0.00,Wunderground v.1.15,2013-05-06 05:55:00,
2013-05-06 02:00:00,59.3,44.1,29.25,SW,231,6.0,6.0,57,0.00,,,0.00,Wunderground v.1.15,2013-05-06 06:00:00,
2013-05-06 02:10:00,59.1,43.9,29.25,SW,230,7.0,7.0,57,0.00,,,0.00,Wunderground v.1.15,2013-05-06 06:10:00,
2013-05-06 02:15:00,58.9,44.1,29.25,WSW,242,8.0,9.0,58,0.00,,,0.00,Wunderground v.1.15,2013-05-06 06:15:00,
2013-05-06 02:20:00,58.8,44.0,29.26,SW,235,9.0,9.0,58,0.00,,,0.00,Wunderground v.1.15,2013-05-06 06:20:00,
2013-05-06 02:25:00,58.5,44.2,29.26,WSW,244,8.0,9.0,59,0.00,,,0.00,Wunderground v.1.15,2013-05-06 06:25:00,
2013-05-06 02:30:00,58.2,43.9,29.26,WSW,245,8.0,8.0,59,0.00,,,0.00,Wunderground v.1.15,2013-05-06 06:30:00,
2013-05-06 02:35:00,58.1,43.8,29.26,WSW,255,8.0,8.0,59,0.00,,,0.00,Wunderground v.1.15,2013-05-06 06:35:00,
2013-05-06 02:45:00,57.6,42.9,29.26,West,259,6.0,9.0,58,0.00,,,0.00,Wunderground v.1.15,2013-05-06 06:45:00,
2013-05-06 02:50:00,57.7,42.1,29.26,WSW,248,6.0,6.0,56,0.00,,,0.00,Wunderground v.1.15,2013-05-06 06:50:00,
2013-05-06 02:55:00,57.7,41.6,29.26,WSW,250,6.0,6.0,55,0.00,,,0.00,Wunderground v.1.15,2013-05-06 06:55:00,
2013-05-06 03:00:00,57.6,41.1,29.26,WSW,241,6.0,7.0,54,0.00,,,0.00,Wunderground v.1.15,2013-05-06 07:00:00,
2013-05-06 03:05:00,57.6,40.1,29.26,West,265,6.0,7.0,52,0.00,,,0.00,Wunderground v.1.15,2013-05-06 07:05:00,
2013-05-06 03:15:00,58.0,40.0,29.26,WSW,238,7.0,9.0,51,0.00,,,0.00,Wunderground v.1.15,2013-05-06 07:15:00,
2013-05-06 03:20:00,57.8,38.8,29.26,WSW,238,8.0,8.0,49,0.00,,,0.00,Wunderground v.1.15,2013-05-06 07:20:00,
2013-05-06 03:25:00,57.7,38.7,29.26,WSW,238,8.0,8.0,49,0.00,,,0.00,Wunderground v.1.15,2013-05-06 07:25:00,
2013-05-06 03:30:00,57.8,38.8,29.26,WSW,254,7.0,7.0,49,0.00,,,0.00,Wunderground v.1.15,2013-05-06 07:30:00,
2013-05-06 03:35:00,57.6,38.6,29.26,WSW,244,7.0,7.0,49,0.00,,,0.00,Wunderground v.1.15,2013-05-06 07:35:00,
2013-05-06 03:40:00,57.5,38.5,29.26,WSW,255,7.0,7.0,49,0.00,,,0.00,Wunderground v.1.15,2013-05-06 07:40:00,
2013-05-06 03:49:00,57.9,36.7,29.26,West,266,4.0,4.0,45,0.00,,,0.00,Wunderground v.1.15,2013-05-06 07:49:00,
2013-05-06 03:54:00,57.7,38.1,29.25,West,271,3.0,6.0,48,0.00,,,0.00,Wunderground v.1.15,2013-05-06 07:54:00,
2013-05-06 03:59:00,56.9,37.4,29.25,West,270,2.0,6.0,48,0.00,,,0.00,Wunderground v.1.15,2013-05-06 07:59:00,
2013-05-06 04:04:00,56.5,37.6,29.25,West,267,2.0,6.0,49,0.00,,,0.00,Wunderground v.1.15,2013-05-06 08:04:00,
2013-05-06 04:09:00,56.4,37.5,29.26,West,269,4.0,4.0,49,0.00,,,0.00,Wunderground v.1.15,2013-05-06 08:09:00,
2013-05-06 04:15:00,56.1,37.7,29.26,West,264,3.0,6.0,50,0.00,,,0.00,Wunderground v.1.15,2013-05-06 08:15:00,
2013-05-06 04:20:00,56.1,37.2,29.26,West,267,3.0,6.0,49,0.00,,,0.00,Wunderground v.1.15,2013-05-06 08:20:00,
2013-05-06 04:25:00,56.1,36.7,29.26,West,265,3.0,6.0,48,0.00,,,0.00,Wunderground v.1.15,2013-05-06 08:25:00,
2013-05-06 04:30:00,56.3,36.8,29.26,WSW,248,4.0,6.0,48,0.00,,,0.00,Wunderground v.1.15,2013-05-06 08:30:00,
2013-05-06 04:35:00,56.7,36.1,29.26,West,261,5.0,6.0,46,0.00,,,0.00,Wunderground v.1.15,2013-05-06 08:35:00,
2013-05-06 04:40:00,57.4,35.6,29.26,WSW,252,5.0,5.0,44,0.00,,,0.00,Wunderground v.1.15,2013-05-06 08:40:00,
2013-05-06 04:50:00,57.2,35.5,29.26,WSW,254,3.0,6.0,44,0.00,,,0.00,Wunderground v.1.15,2013-05-06 08:50:00,
2013-05-06 04:55:00,57.5,35.7,29.26,West,261,3.0,6.0,44,0.00,,,0.00,Wunderground v.1.15,2013-05-06 08:55:00,
2013-05-06 05:00:00,57.3,35.6,29.26,West,261,2.0,2.0,44,0.00,,,0.00,Wunderground v.1.15,2013-05-06 09:00:00,
2013-05-06 05:05:00,57.0,35.9,29.26,West,261,0.0,6.0,45,0.00,,,0.00,Wunderground v.1.15,2013-05-06 09:05:00,
2013-05-06 05:10:00,56.7,35.0,29.26,West,261,0.0,6.0,44,0.00,,,0.00,Wunderground v.1.15,2013-05-06 09:10:00,
2013-05-06 05:15:00,56.5,35.4,29.26,West,265,2.0,6.0,45,0.00,,,0.00,Wunderground v.1.15,2013-05-06 09:15:00,
2013-05-06 05:25:00,56.2,34.6,29.27,WSW,252,5.0,7.0,44,0.00,,,0.00,Wunderground v.1.15,2013-05-06 09:25:00,
2013-05-06 05:30:00,56.6,34.3,29.27,WSW,254,6.0,6.0,43,0.00,,,0.00,Wunderground v.1.15,2013-05-06 09:30:00,
2013-05-06 05:35:00,56.5,34.8,29.27,West,267,7.0,7.0,44,0.00,,,0.00,Wunderground v.1.15,2013-05-06 09:35:00,
2013-05-06 05:40:00,56.3,35.2,29.27,West,281,7.0,7.0,45,0.00,,,0.00,Wunderground v.1.15,2013-05-06 09:40:00,
2013-05-06 05:45:00,55.7,34.7,29.27,West,262,6.0,7.0,45,0.00,,,0.00,Wunderground v.1.15,2013-05-06 09:45:00,
2013-05-06 05:55:00,55.3,35.4,29.27,West,261,8.0,8.0,47,0.00,,,0.00,Wunderground v.1.15,2013-05-06 09:55:00,
2013-05-06 06:00:00,55.0,35.7,29.27,WSW,252,7.0,9.0,48,0.00,,,0.00,Wunderground v.1.15,2013-05-06 10:00:00,
2013-05-06 06:05:00,54.8,36.0,29.27,West,270,7.0,9.0,49,0.00,,,0.00,Wunderground v.1.15,2013-05-06 10:05:00,
2013-05-06 06:10:00,54.4,35.6,29.27,WSW,257,8.0,8.0,49,0.00,,,0.00,Wunderground v.1.15,2013-05-06 10:10:00,
2013-05-06 06:15:00,54.1,35.9,29.27,West,263,8.0,8.0,50,0.00,,,0.00,Wunderground v.1.15,2013-05-06 10:15:00,
2013-05-06 06:20:00,54.1,36.4,29.28,West,264,7.0,7.0,51,0.00,,,0.00,Wunderground v.1.15,2013-05-06 10:20:00,
2013-05-06 06:30:00,53.7,36.5,29.28,West,270,6.0,6.0,52,0.00,,,0.00,Wunderground v.1.15,2013-05-06 10:30:00,
2013-05-06 06:35:00,53.7,36.5,29.28,WSW,254,6.0,8.0,52,0.00,,,0.00,Wunderground v.1.15,2013-05-06 10:35:00,
2013-05-06 06:40:00,54.0,36.3,29.28,West,265,6.0,7.0,51,0.00,,,0.00,Wunderground v.1.15,2013-05-06 10:40:00,
2013-05-06 06:45:00,54.5,36.7,29.28,West,262,6.0,7.0,51,0.00,,,0.00,Wunderground v.1.15,2013-05-06 10:45:00,
2013-05-06 06:50:00,54.6,36.3,29.29,WSW,257,5.0,6.0,50,0.00,,,0.00,Wunderground v.1.15,2013-05-06 10:50:00,
2013-05-06 06:59:00,53.2,40.1,29.30,WSW,257,1.0,1.0,61,0.00,,,0.00,Wunderground v.1.15,2013-05-06 10:59:00,
2013-05-06 07:05:00,52.2,40.4,29.30,WSW,257,0.0,6.0,64,0.00,,,0.00,Wunderground v.1.15,2013-05-06 11:05:00,
2013-05-06 07:10:00,51.9,39.7,29.30,WSW,257,0.0,6.0,63,0.00,,,0.00,Wunderground v.1.15,2013-05-06 11:10:00,
2013-05-06 07:15:00,52.7,39.6,29.30,WSW,256,0.0,6.0,61,0.00,,,0.00,Wunderground v.1.15,2013-05-06 11:15:00,
2013-05-06 07:20:00,53.5,41.2,29.29,WSW,252,0.0,6.0,63,0.00,,,0.00,Wunderground v.1.15,2013-05-06 11:20:00,
2013-05-06 07:25:00,54.3,42.0,29.30,WSW,252,0.0,6.0,63,0.00,,,0.00,Wunderground v.1.15,2013-05-06 11:25:00,
2013-05-06 07:34:00,54.9,41.3,29.30,WSW,252,0.0,6.0,60,0.00,,,0.00,Wunderground v.1.15,2013-05-06 11:34:00,
2013-05-06 07:39:00,55.7,39.8,29.30,WSW,252,0.0,6.0,55,0.00,,,0.00,Wunderground v.1.15,2013-05-06 11:39:00,
2013-05-06 07:44:00,56.0,38.6,29.30,WSW,252,2.0,6.0,52,0.00,,,0.00,Wunderground v.1.15,2013-05-06 11:44:00,
2013-05-06 07:49:00,56.2,38.8,29.30,WSW,252,2.0,6.0,52,0.00,,,0.00,Wunderground v.1.15,2013-05-06 11:49:00,
2013-05-06 07:54:00,56.9,39.4,29.30,WSW,243,2.0,6.0,52,0.00,,,0.00,Wunderground v.1.15,2013-05-06 11:54:00,
2013-05-06 08:00:00,57.8,39.8,29.30,WSW,243,0.0,6.0,51,0.00,,,0.00,Wunderground v.1.15,2013-05-06 12:00:00,
2013-05-06 08:05:00,58.2,38.6,29.31,WSW,243,0.0,6.0,48,0.00,,,0.00,Wunderground v.1.15,2013-05-06 12:05:00,
2013-05-06 08:10:00,59.1,39.4,29.31,WSW,243,0.0,6.0,48,0.00,,,0.00,Wunderground v.1.15,2013-05-06 12:10:00,
2013-05-06 08:15:00,59.8,39.5,29.31,WSW,243,0.0,6.0,47,0.00,,,0.00,Wunderground v.1.15,2013-05-06 12:15:00,
2013-05-06 08:20:00,60.7,39.8,29.31,WSW,243,0.0,6.0,46,0.00,,,0.00,Wunderground v.1.15,2013-05-06 12:20:00,
2013-05-06 08:25:00,62.3,38.9,29.30,WSW,244,0.0,6.0,42,0.00,,,0.00,Wunderground v.1.15,2013-05-06 12:25:00,
2013-05-06 08:35:00,64.2,41.2,29.31,WSW,244,0.0,6.0,43,0.00,,,0.00,Wunderground v.1.15,2013-05-06 12:35:00,
2013-05-06 08:40:00,65.5,38.5,29.31,WSW,244,0.0,6.0,37,0.00,,,0.00,Wunderground v.1.15,2013-05-06 12:40:00,
2013-05-06 08:45:00,65.2,37.6,29.31,WSW,244,0.0,6.0,36,0.00,,,0.00,Wunderground v.1.15,2013-05-06 12:45:00,
2013-05-06 08:50:00,65.6,37.2,29.31,WSW,244,0.0,6.0,35,0.00,,,0.00,Wunderground v.1.15,2013-05-06 12:50:00,
2013-05-06 08:55:00,66.1,36.9,29.31,WSW,244,0.0,6.0,34,0.00,,,0.00,Wunderground v.1.15,2013-05-06 12:55:00,
2013-05-06 09:00:00,65.6,37.2,29.31,WSW,244,0.0,6.0,35,0.00,,,0.00,Wunderground v.1.15,2013-05-06 13:00:00,
2013-05-06 09:10:00,63.7,36.2,29.31,SE,139,1.0,1.0,36,0.00,,,0.00,Wunderground v.1.15,2013-05-06 13:10:00,
2013-05-06 09:15:00,63.5,34.6,29.31,SE,139,1.0,6.0,34,0.00,,,0.00,Wunderground v.1.15,2013-05-06 13:15:00,
2013-05-06 09:20:00,64.9,37.3,29.31,SE,139,0.0,6.0,36,0.00,,,0.00,Wunderground v.1.15,2013-05-06 13:20:00,
2013-05-06 09:25:00,67.6,36.7,29.31,SE,139,0.0,6.0,32,0.00,,,0.00,Wunderground v.1.15,2013-05-06 13:25:00,
2013-05-06 09:30:00,68.3,36.5,29.31,SE,139,0.0,6.0,31,0.00,,,0.00,Wunderground v.1.15,2013-05-06 13:30:00,
2013-05-06 09:40:00,66.4,37.2,29.31,SE,139,0.0,6.0,34,0.00,,,0.00,Wunderground v.1.15,2013-05-06 13:40:00,
2013-05-06 09:45:00,67.0,37.7,29.31,SE,140,0.0,6.0,34,0.00,,,0.00,Wunderground v.1.15,2013-05-06 13:45:00,
2013-05-06 09:50:00,68.2,39.5,29.31,SE,140,0.0,6.0,35,0.00,,,0.00,Wunderground v.1.15,2013-05-06 13:50:00,
2013-05-06 09:55:00,67.8,36.8,29.31,SE,136,0.0,6.0,32,0.00,,,0.00,Wunderground v.1.15,2013-05-06 13:55:00,
2013-05-06 10:00:00,66.7,35.9,29.31,SE,136,1.0,6.0,32,0.00,,,0.00,Wunderground v.1.15,2013-05-06 14:00:00,
2013-05-06 10:05:00,65.2,38.3,29.31,SE,131,1.0,6.0,37,0.00,,,0.00,Wunderground v.1.15,2013-05-06 14:05:00,
2013-05-06 10:15:00,65.6,40.0,29.31,ESE,123,1.0,6.0,39,0.00,,,0.00,Wunderground v.1.15,2013-05-06 14:15:00,
2013-05-06 10:20:00,66.8,39.7,29.31,ENE,78,1.0,1.0,37,0.00,,,0.00,Wunderground v.1.15,2013-05-06 14:20:00,
2013-05-06 10:25:00,66.7,37.4,29.31,East,97,2.0,2.0,34,0.00,,,0.00,Wunderground v.1.15,2013-05-06 14:25:00,
2013-05-06 10:30:00,66.2,39.8,29.31,NE,52,3.0,3.0,38,0.00,,,0.00,Wunderground v.1.15,2013-05-06 14:30:00,
2013-05-06 10:35:00,67.0,39.9,29.31,East,92,2.0,6.0,37,0.00,,,0.00,Wunderground v.1.15,2013-05-06 14:35:00,
2013-05-06 10:45:00,67.0,38.4,29.30,SE,127,2.0,5.0,35,0.00,,,0.00,Wunderground v.1.15,2013-05-06 14:45:00,
2013-05-06 10:50:00,67.5,38.9,29.30,East,89,2.0,6.0,35,0.00,,,0.00,Wunderground v.1.15,2013-05-06 14:50:00,
2013-05-06 10:55:00,67.7,38.3,29.30,ESE,105,3.0,6.0,34,0.00,,,0.00,Wunderground v.1.15,2013-05-06 14:55:00,
2013-05-06 11:00:00,67.9,36.9,29.30,ESE,113,3.0,8.0,32,0.00,,,0.00,Wunderground v.1.15,2013-05-06 15:00:00,
2013-05-06 11:05:00,67.2,37.9,29.30,ESE,107,3.0,8.0,34,0.00,,,0.00,Wunderground v.1.15,2013-05-06 15:05:00,
2013-05-06 11:10:00,68.1,37.9,29.30,East,92,4.0,6.0,33,0.00,,,0.00,Wunderground v.1.15,2013-05-06 15:10:00,
2013-05-06 11:20:00,68.4,37.4,29.30,ENE,72,2.0,6.0,32,0.00,,,0.00,Wunderground v.1.15,2013-05-06 15:20:00,
2013-05-06 11:25:00,69.0,38.7,29.30,SSE,157,2.0,6.0,33,0.00,,,0.00,Wunderground v.1.15,2013-05-06 15:25:00,
2013-05-06 11:30:00,68.4,37.4,29.30,East,90,2.0,8.0,32,0.00,,,0.00,Wunderground v.1.15,2013-05-06 15:30:00,
2013-05-06 11:35:00,68.6,37.5,29.30,ESE,120,4.0,8.0,32,0.00,,,0.00,Wunderground v.1.15,2013-05-06 15:35:00,
2013-05-06 11:40:00,67.7,35.1,29.30,ESE,112,4.0,4.0,30,0.00,,,0.00,Wunderground v.1.15,2013-05-06 15:40:00,
2013-05-06 11:49:00,69.9,34.4,29.29,SSE,165,2.0,6.0,27,0.00,,,0.00,Wunderground v.1.15,2013-05-06 15:49:00,
2013-05-06 11:54:00,69.3,36.5,29.29,ESE,114,3.0,12.0,30,0.00,,,0.00,Wunderground v.1.15,2013-05-06 15:54:00,
2013-05-06 11:59:00,68.8,36.9,29.29,ESE,108,5.0,5.0,31,0.00,,,0.00,Wunderground v.1.15,2013-05-06 15:59:00,
2013-05-06 12:04:00,69.0,37.1,29.29,SE,128,5.0,6.0,31,0.00,,,0.00,Wunderground v.1.15,2013-05-06 16:04:00,
2013-05-06 12:10:00,69.0,36.3,29.28,South,171,5.0,6.0,30,0.00,,,0.00,Wunderground v.1.15,2013-05-06 16:10:00,
2013-05-06 12:15:00,69.4,37.4,29.28,ESE,115,4.0,6.0,31,0.00,,,0.00,Wunderground v.1.15,2013-05-06 16:15:00,
2013-05-06 12:24:00,69.3,38.2,29.28,ESE,109,5.0,8.0,32,0.00,,,0.00,Wunderground v.1.15,2013-05-06 16:24:00,
2013-05-06 12:29:00,69.6,40.0,29.28,ESE,105,7.0,7.0,34,0.00,,,0.00,Wunderground v.1.15,2013-05-06 16:29:00,
2013-05-06 12:34:00,69.3,36.5,29.28,ESE,114,8.0,11.0,30,0.00,,,0.00,Wunderground v.1.15,2013-05-06 16:34:00,
2013-05-06 12:39:00,69.5,39.1,29.28,ESE,121,7.0,7.0,33,0.00,,,0.00,Wunderground v.1.15,2013-05-06 16:39:00,
2013-05-06 12:44:00,69.7,36.9,29.27,NE,40,5.0,7.0,30,0.00,,,0.00,Wunderground v.1.15,2013-05-06 16:44:00,
2013-05-06 12:50:00,71.5,44.5,29.27,East,100,4.0,6.0,38,0.00,,,0.00,Wunderground v.1.15,2013-05-06 16:50:00,
2013-05-06 12:55:00,70.1,42.6,29.27,East,92,5.0,6.0,37,0.00,,,0.00,Wunderground v.1.15,2013-05-06 16:55:00,
2013-05-06 13:00:00,69.5,41.4,29.26,ESE,118,8.0,9.0,36,0.00,,,0.00,Wunderground v.1.15,2013-05-06 17:00:00,
2013-05-06 13:05:00,69.9,43.8,29.26,East,92,10.0,11.0,39,0.00,,,0.00,Wunderground v.1.15,2013-05-06 17:05:00,
2013-05-06 13:10:00,69.4,42.7,29.26,ENE,76,10.0,10.0,38,0.00,,,0.00,Wunderground v.1.15,2013-05-06 17:10:00,
2013-05-06 13:15:00,69.3,43.3,29.26,SE,136,10.0,13.0,39,0.00,,,0.00,Wunderground v.1.15,2013-05-06 17:15:00,
2013-05-06 13:25:00,69.4,41.3,29.26,ESE,115,11.0,16.0,36,0.00,,,0.00,Wunderground v.1.15,2013-05-06 17:25:00,
2013-05-06 13:30:00,69.0,40.2,29.25,ENE,78,11.0,11.0,35,0.00,,,0.00,Wunderground v.1.15,2013-05-06 17:30:00,
2013-05-06 13:35:00,69.5,39.9,29.26,ENE,61,11.0,11.0,34,0.00,,,0.00,Wunderground v.1.15,2013-05-06 17:35:00,
2013-05-06 13:40:00,70.1,39.6,29.25,ENE,78,8.0,11.0,33,0.00,,,0.00,Wunderground v.1.15,2013-05-06 17:40:00,
2013-05-06 13:45:00,69.3,39.7,29.26,ESE,114,10.0,11.0,34,0.00,,,0.00,Wunderground v.1.15,2013-05-06 17:45:00,
2013-05-06 13:50:00,68.6,38.3,29.25,ENE,74,11.0,11.0,33,0.00,,,0.00,Wunderground v.1.15,2013-05-06 17:50:00,
2013-05-06 14:00:00,68.5,39.8,29.25,SE,142,11.0,11.0,35,0.00,,,0.00,Wunderground v.1.15,2013-05-06 18:00:00,
2013-05-06 14:05:00,68.0,38.6,29.25,ESE,113,11.0,12.0,34,0.00,,,0.00,Wunderground v.1.15,2013-05-06 18:05:00,
2013-05-06 14:10:00,68.1,39.4,29.25,ESE,109,12.0,15.0,35,0.00,,,0.00,Wunderground v.1.15,2013-05-06 18:10:00,
2013-05-06 14:15:00,68.0,38.6,29.25,SE,140,10.0,15.0,34,0.00,,,0.00,Wunderground v.1.15,2013-05-06 18:15:00,
2013-05-06 14:20:00,67.6,39.0,29.24,ESE,123,10.0,12.0,35,0.00,,,0.00,Wunderground v.1.15,2013-05-06 18:20:00,
2013-05-06 14:30:00,68.2,40.2,29.24,ESE,103,10.0,10.0,36,0.00,,,0.00,Wunderground v.1.15,2013-05-06 18:30:00,
2013-05-06 14:35:00,68.5,38.2,29.24,SE,135,9.0,11.0,33,0.00,,,0.00,Wunderground v.1.15,2013-05-06 18:35:00,
2013-05-06 14:40:00,68.1,38.7,29.24,East,99,10.0,10.0,34,0.00,,,0.00,Wunderground v.1.15,2013-05-06 18:40:00,
2013-05-06 14:45:00,68.3,38.1,29.24,East,96,10.0,13.0,33,0.00,,,0.00,Wunderground v.1.15,2013-05-06 18:45:00,
2013-05-06 14:50:00,67.8,37.6,29.24,SE,126,11.0,11.0,33,0.00,,,0.00,Wunderground v.1.15,2013-05-06 18:50:00,
2013-05-06 14:55:00,68.4,41.8,29.24,SE,131,11.0,11.0,38,0.00,,,0.00,Wunderground v.1.15,2013-05-06 18:55:00,
2013-05-06 15:05:00,68.5,39.0,29.23,East,100,9.0,9.0,34,0.00,,,0.00,Wunderground v.1.15,2013-05-06 19:05:00,
2013-05-06 15:10:00,69.0,40.2,29.23,SE,129,10.0,15.0,35,0.00,,,0.00,Wunderground v.1.15,2013-05-06 19:10:00,
2013-05-06 15:15:00,69.0,41.6,29.23,ESE,122,10.0,15.0,37,0.00,,,0.00,Wunderground v.1.15,2013-05-06 19:15:00,
2013-05-06 15:20:00,69.2,43.2,29.23,SE,130,7.0,13.0,39,0.00,,,0.00,Wunderground v.1.15,2013-05-06 19:20:00,
2013-05-06 15:25:00,68.8,44.1,29.22,SE,133,7.0,13.0,41,0.00,,,0.00,Wunderground v.1.15,2013-05-06 19:25:00,
2013-05-06 15:34:00,69.2,44.5,29.22,ESE,111,7.0,7.0,41,0.00,,,0.00,Wunderground v.1.15,2013-05-06 19:34:00,
2013-05-06 15:39:00,69.5,43.4,29.22,SE,140,6.0,6.0,39,0.00,,,0.00,Wunderground v.1.15,2013-05-06 19:39:00,
2013-05-06 15:44:00,69.8,45.0,29.22,ESE,114,4.0,6.0,41,0.00,,,0.00,Wunderground v.1.15,2013-05-06 19:44:00,
2013-05-06 15:49:00,70.0,45.8,29.21,ESE,119,5.0,7.0,42,0.00,,,0.00,Wunderground v.1.15,2013-05-06 19:49:00,
2013-05-06 15:54:00,69.9,43.8,29.21,ESE,111,7.0,9.0,39,0.00,,,0.00,Wunderground v.1.15,2013-05-06 19:54:00,
2013-05-06 15:59:00,70.0,43.9,29.20,ESE,117,9.0,11.0,39,0.00,,,0.00,Wunderground v.1.15,2013-05-06 19:59:00,
2013-05-06 16:09:00,70.1,43.3,29.20,SE,126,11.0,11.0,38,0.00,,,0.00,Wunderground v.1.15,2013-05-06 20:09:00,
2013-05-06 16:14:00,70.0,44.6,29.20,ESE,118,10.0,11.0,40,0.00,,,0.00,Wunderground v.1.15,2013-05-06 20:14:00,
2013-05-06 16:19:00,70.3,42.8,29.20,ESE,106,9.0,15.0,37,0.00,,,0.00,Wunderground v.1.15,2013-05-06 20:19:00,
2013-05-06 16:24:00,70.1,44.0,29.20,SE,130,9.0,15.0,39,0.00,,,0.00,Wunderground v.1.15,2013-05-06 20:24:00,
2013-05-06 16:29:00,70.1,46.6,29.20,SE,138,8.0,11.0,43,0.00,,,0.00,Wunderground v.1.15,2013-05-06 20:29:00,
2013-05-06 16:35:00,69.9,43.8,29.19,SE,127,10.0,11.0,39,0.00,,,0.00,Wunderground v.1.15,2013-05-06 20:35:00,
2013-05-06 16:40:00,70.3,45.5,29.19,ESE,107,8.0,8.0,41,0.00,,,0.00,Wunderground v.1.15,2013-05-06 20:40:00,
2013-05-06 16:45:00,70.0,41.8,29.19,ESE,123,6.0,8.0,36,0.00,,,0.00,Wunderground v.1.15,2013-05-06 20:45:00,
2013-05-06 16:50:00,69.8,40.9,29.19,SE,136,8.0,12.0,35,0.00,,,0.00,Wunderground v.1.15,2013-05-06 20:50:00,
2013-05-06 16:55:00,69.7,42.9,29.19,SSE,166,9.0,12.0,38,0.00,,,0.00,Wunderground v.1.15,2013-05-06 20:55:00,
2013-05-06 17:00:00,70.0,43.2,29.19,South,169,6.0,8.0,38,0.00,,,0.00,Wunderground v.1.15,2013-05-06 21:00:00,
2013-05-06 17:10:00,70.1,44.0,29.19,SE,138,5.0,13.0,39,0.00,,,0.00,Wunderground v.1.15,2013-05-06 21:10:00,
2013-05-06 17:15:00,70.0,44.6,29.19,ESE,109,5.0,13.0,40,0.00,,,0.00,Wunderground v.1.15,2013-05-06 21:15:00,
2013-05-06 17:20:00,70.3,43.5,29.19,ESE,107,6.0,9.0,38,0.00,,,0.00,Wunderground v.1.15,2013-05-06 21:20:00,
2013-05-06 17:25:00,70.1,44.6,29.19,ESE,118,8.0,9.0,40,0.00,,,0.00,Wunderground v.1.15,2013-05-06 21:25:00,
2013-05-06 17:30:00,70.3,44.8,29.18,East,94,8.0,13.0,40,0.00,,,0.00,Wunderground v.1.15,2013-05-06 21:30:00,
2013-05-06 17:35:00,70.0,43.2,29.19,ESE,118,8.0,13.0,38,0.00,,,0.00,Wunderground v.1.15,2013-05-06 21:35:00,
2013-05-06 17:45:00,69.9,45.1,29.18,ESE,122,9.0,13.0,41,0.00,,,0.00,Wunderground v.1.15,2013-05-06 21:45:00,
2013-05-06 17:50:00,69.7,43.6,29.18,ESE,109,9.0,9.0,39,0.00,,,0.00,Wunderground v.1.15,2013-05-06 21:50:00,
2013-05-06 17:55:00,69.6,43.5,29.18,SE,132,9.0,13.0,39,0.00,,,0.00,Wunderground v.1.15,2013-05-06 21:55:00,
2013-05-06 18:00:00,69.2,43.2,29.18,SE,136,10.0,14.0,39,0.00,,,0.00,Wunderground v.1.15,2013-05-06 22:00:00,
2013-05-06 18:05:00,69.1,43.1,29.18,ESE,115,10.0,14.0,39,0.00,,,0.00,Wunderground v.1.15,2013-05-06 22:05:00,
2013-05-06 18:15:00,69.2,43.8,29.18,SE,132,9.0,13.0,40,0.00,,,0.00,Wunderground v.1.15,2013-05-06 22:15:00,
2013-05-06 18:20:00,69.0,44.9,29.18,SE,127,6.0,15.0,42,0.00,,,0.00,Wunderground v.1.15,2013-05-06 22:20:00,
2013-05-06 18:25:00,68.7,42.7,29.18,ESE,116,6.0,15.0,39,0.00,,,0.00,Wunderground v.1.15,2013-05-06 22:25:00,
2013-05-06 18:30:00,68.6,43.3,29.18,ESE,119,6.0,6.0,40,0.00,,,0.00,Wunderground v.1.15,2013-05-06 22:30:00,
2013-05-06 18:35:00,68.6,43.3,29.18,SE,134,3.0,9.0,40,0.00,,,0.00,Wunderground v.1.15,2013-05-06 22:35:00,
2013-05-06 18:40:00,68.6,44.6,29.18,ESE,119,3.0,8.0,42,0.00,,,0.00,Wunderground v.1.15,2013-05-06 22:40:00,
2013-05-06 18:49:00,68.1,44.1,29.17,SE,128,6.0,9.0,42,0.00,,,0.00,Wunderground v.1.15,2013-05-06 22:49:00,
2013-05-06 18:54:00,68.0,44.7,29.18,SSE,149,6.0,9.0,43,0.00,,,0.00,Wunderground v.1.15,2013-05-06 22:54:00,
2013-05-06 18:59:00,68.0,40.7,29.18,SSE,153,5.0,5.0,37,0.00,,,0.00,Wunderground v.1.15,2013-05-06 22:59:00,
2013-05-06 19:04:00,67.6,42.4,29.18,SSE,166,6.0,10.0,40,0.00,,,0.00,Wunderground v.1.15,2013-05-06 23:04:00,
2013-05-06 19:09:00,67.2,41.4,29.17,SSE,162,5.0,5.0,39,0.00,,,0.00,Wunderground v.1.15,2013-05-06 23:09:00,
2013-05-06 19:19:00,66.7,40.3,29.18,SSE,148,3.0,3.0,38,0.00,,,0.00,Wunderground v.1.15,2013-05-06 23:19:00,
2013-05-06 19:24:00,66.6,41.5,29.18,SE,128,2.0,6.0,40,0.00,,,0.00,Wunderground v.1.15,2013-05-06 23:24:00,
2013-05-06 19:29:00,66.3,41.9,29.18,ESE,120,1.0,1.0,41,0.00,,,0.00,Wunderground v.1.15,2013-05-06 23:29:00,
2013-05-06 19:34:00,66.0,42.9,29.18,ESE,120,2.0,2.0,43,0.00,,,0.00,Wunderground v.1.15,2013-05-06 23:34:00,
2013-05-06 19:39:00,65.4,41.1,29.18,ESE,120,2.0,7.0,41,0.00,,,0.00,Wunderground v.1.15,2013-05-06 23:39:00,
2013-05-06 19:44:00,65.2,40.9,29.18,ESE,121,3.0,7.0,41,0.00,,,0.00,Wunderground v.1.15,2013-05-06 23:44:00,
2013-05-06 19:50:00,64.9,41.9,29.18,ESE,119,3.0,3.0,43,0.00,,,0.00,Wunderground v.1.15,2013-05-06 23:50:00,
2013-05-06 19:55:00,64.1,41.7,29.18,ESE,119,2.0,6.0,44,0.00,,,0.00,Wunderground v.1.15,2013-05-06 23:55:00,
2013-05-06 20:00:00,63.9,41.0,29.18,ESE,119,2.0,2.0,43,0.00,,,0.00,Wunderground v.1.15,2013-05-07 00:00:00,
2013-05-06 20:05:00,63.4,41.7,29.18,ESE,119,2.0,6.0,45,0.00,,,0.00,Wunderground v.1.15,2013-05-07 00:05:00,
2013-05-06 20:10:00,63.2,40.9,29.18,ESE,119,2.0,6.0,44,0.00,,,0.00,Wunderground v.1.15,2013-05-07 00:10:00,
2013-05-06 20:15:00,62.8,41.1,29.18,ESE,119,2.0,6.0,45,0.00,,,0.00,Wunderground v.1.15,2013-05-07 00:15:00,
2013-05-06 20:25:00,62.3,42.3,29.18,ESE,119,2.0,6.0,48,0.00,,,0.00,Wunderground v.1.15,2013-05-07 00:25:00,
2013-05-06 20:30:00,61.7,43.4,29.18,ESE,119,2.0,6.0,51,0.00,,,0.00,Wunderground v.1.15,2013-05-07 00:30:00,
2013-05-06 20:35:00,61.1,44.3,29.18,ESE,119,0.0,6.0,54,0.00,,,0.00,Wunderground v.1.15,2013-05-07 00:35:00,
2013-05-06 20:40:00,60.4,45.1,29.18,ESE,119,0.0,6.0,57,0.00,,,0.00,Wunderground v.1.15,2013-05-07 00:40:00,
2013-05-06 20:45:00,59.9,45.5,29.19,ESE,119,0.0,6.0,59,0.00,,,0.00,Wunderground v.1.15,2013-05-07 00:45:00,
2013-05-06 20:55:00,58.9,45.0,29.19,ESE,119,0.0,6.0,60,0.00,,,0.00,Wunderground v.1.15,2013-05-07 00:55:00,
2013-05-06 21:00:00,58.5,45.5,29.19,ESE,119,0.0,6.0,62,0.00,,,0.00,Wunderground v.1.15,2013-05-07 01:00:00,
2013-05-06 21:05:00,58.2,45.2,29.19,ESE,119,0.0,6.0,62,0.00,,,0.00,Wunderground v.1.15,2013-05-07 01:05:00,
2013-05-06 21:10:00,57.8,45.3,29.19,ESE,119,0.0,6.0,63,0.00,,,0.00,Wunderground v.1.15,2013-05-07 01:10:00,
2013-05-06 21:15:00,57.5,45.4,29.19,ESE,119,0.0,6.0,64,0.00,,,0.00,Wunderground v.1.15,2013-05-07 01:15:00,
2013-05-06 21:20:00,57.2,45.1,29.19,ESE,119,0.0,6.0,64,0.00,,,0.00,Wunderground v.1.15,2013-05-07 01:20:00,
2013-05-06 21:30:00,57.0,44.9,29.20,ESE,119,0.0,6.0,64,0.00,,,0.00,Wunderground v.1.15,2013-05-07 01:30:00,
2013-05-06 21:35:00,57.1,44.6,29.20,ESE,119,0.0,6.0,63,0.00,,,0.00,Wunderground v.1.15,2013-05-07 01:35:00,
2013-05-06 21:40:00,57.2,44.7,29.20,ESE,119,0.0,6.0,63,0.00,,,0.00,Wunderground v.1.15,2013-05-07 01:40:00,
2013-05-06 21:45:00,57.2,45.5,29.20,ESE,119,0.0,6.0,65,0.00,,,0.00,Wunderground v.1.15,2013-05-07 01:45:00,
2013-05-06 21:50:00,57.1,44.2,29.20,ESE,119,0.0,6.0,62,0.00,,,0.00,Wunderground v.1.15,2013-05-07 01:50:00,
2013-05-06 22:00:00,57.2,43.4,29.20,ESE,119,0.0,6.0,60,0.00,,,0.00,Wunderground v.1.15,2013-05-07 02:00:00,
2013-05-06 22:05:00,57.3,43.5,29.20,ESE,119,0.0,6.0,60,0.00,,,0.00,Wunderground v.1.15,2013-05-07 02:05:00,
2013-05-06 22:10:00,57.4,43.2,29.20,ESE,119,0.0,6.0,59,0.00,,,0.00,Wunderground v.1.15,2013-05-07 02:10:00,
2013-05-06 22:15:00,57.5,42.8,29.20,ESE,119,0.0,6.0,58,0.00,,,0.00,Wunderground v.1.15,2013-05-07 02:15:00,
2013-05-06 22:20:00,57.6,42.9,29.20,ESE,119,0.0,6.0,58,0.00,,,0.00,Wunderground v.1.15,2013-05-07 02:20:00,
2013-05-06 22:25:00,57.5,42.4,29.20,ESE,119,0.0,6.0,57,0.00,,,0.00,Wunderground v.1.15,2013-05-07 02:25:00,
2013-05-06 22:34:00,57.5,42.4,29.20,ESE,119,0.0,6.0,57,0.00,,,0.00,Wunderground v.1.15,2013-05-07 02:34:00,
2013-05-06 22:39:00,57.4,42.3,29.20,ESE,119,0.0,6.0,57,0.00,,,0.00,Wunderground v.1.15,2013-05-07 02:39:00,
2013-05-06 22:44:00,57.2,42.5,29.21,ESE,119,0.0,6.0,58,0.00,,,0.00,Wunderground v.1.15,2013-05-07 02:44:00,
2013-05-06 22:49:00,57.1,42.9,29.21,ESE,119,0.0,6.0,59,0.00,,,0.00,Wunderground v.1.15,2013-05-07 02:49:00,
2013-05-06 22:54:00,56.9,44.0,29.21,ESE,119,0.0,6.0,62,0.00,,,0.00,Wunderground v.1.15,2013-05-07 02:54:00,
2013-05-06 23:04:00,56.4,44.4,29.21,ESE,119,0.0,6.0,64,0.00,,,0.00,Wunderground v.1.15,2013-05-07 03:04:00,
2013-05-06 23:09:00,56.0,44.0,29.21,ESE,119,0.0,6.0,64,0.00,,,0.00,Wunderground v.1.15,2013-05-07 03:09:00,
2013-05-06 23:14:00,55.9,44.3,29.21,ESE,119,0.0,6.0,65,0.00,,,0.00,Wunderground v.1.15,2013-05-07 03:14:00,
2013-05-06 23:19:00,55.7,44.5,29.20,ESE,119,0.0,6.0,66,0.00,,,0.00,Wunderground v.1.15,2013-05-07 03:19:00,
2013-05-06 23:24:00,55.4,44.6,29.20,ESE,119,0.0,6.0,67,0.00,,,0.00,Wunderground v.1.15,2013-05-07 03:24:00,
2013-05-06 23:29:00,54.8,44.8,29.20,ESE,119,0.0,6.0,69,0.00,,,0.00,Wunderground v.1.15,2013-05-07 03:29:00,
2013-05-06 23:35:00,54.4,44.4,29.21,ESE,119,0.0,6.0,69,0.00,,,0.00,Wunderground v.1.15,2013-05-07 03:35:00,
2013-05-06 23:40:00,54.2,44.6,29.20,ESE,119,0.0,6.0,70,0.00,,,0.00,Wunderground v.1.15,2013-05-07 03:40:00,
2013-05-06 23:45:00,54.0,44.8,29.20,ESE,119,0.0,6.0,71,0.00,,,0.00,Wunderground v.1.15,2013-05-07 03:45:00,
2013-05-06 23:50:00,53.8,44.6,29.20,ESE,119,0.0,6.0,71,0.00,,,0.00,Wunderground v.1.15,2013-05-07 03:50:00,
2013-05-06 23:55:00,53.7,44.9,29.20,ESE,119,0.0,6.0,72,0.00,,,0.00,Wunderground v.1.15,2013-05-07 03:55:00,